Time;durP1;ratioP1;P1;durP2;ratioP2;P2;SDS_P1;SDS_P2;PMS_P1;PMS_P2;Temp;Humidity;BMP_temperature;BMP_pressure;BME280_temperature;BME280_humidity;BME280_pressure;Samples;Min_cycle;Max_cycle;Signal;HPM_P1;HPM_P2
2023/01/03 00:01:46;;;;;;;7.50;2.97;;;;;;;;;;5056012;28;20461;-72
2023/01/03 00:04:16;;;;;;;10.93;2.37;;;;;;;;;;5055059;28;20449;-72
2023/01/03 00:06:45;;;;;;;6.10;2.03;;;;;;;;;;5055025;28;20458;-72
2023/01/03 00:09:13;;;;;;;8.80;4.13;;;;;;;;;;5055276;28;20742;-72
2023/01/03 00:14:27;;;;;;;7.53;3.27;;;;;;;;;;5055570;28;20420;-72
2023/01/03 00:16:56;;;;;;;6.93;3.27;;;;;;;;;;5055376;28;21029;-72
2023/01/03 00:19:26;;;;;;;8.07;2.37;;;;;;;;;;5055173;28;20881;-72
2023/01/03 00:21:53;;;;;;;4.33;2.47;;;;;;;;;;5055761;28;20453;-72
2023/01/03 00:24:21;;;;;;;4.97;2.20;;;;;;;;;;5055936;28;20461;-72
2023/01/03 00:26:49;;;;;;;7.40;2.13;;;;;;;;;;5055521;28;20456;-72
2023/01/03 00:29:17;;;;;;;3.67;2.23;;;;;;;;;;5055370;28;20450;-72
2023/01/03 00:31:44;;;;;;;3.30;2.00;;;;;;;;;;5055660;28;20454;-72
2023/01/03 00:34:15;;;;;;;3.40;1.80;;;;;;;;;;5055930;28;20453;-72
2023/01/03 00:36:45;;;;;;;8.20;2.90;;;;;;;;;;5055213;28;20449;-72
2023/01/03 00:39:13;;;;;;;7.03;2.53;;;;;;;;;;5055369;28;20492;-72
2023/01/03 00:41:41;;;;;;;6.40;1.83;;;;;;;;;;5055699;28;20928;-72
2023/01/03 00:44:08;;;;;;;8.03;3.10;;;;;;;;;;5055048;28;20481;-72
2023/01/03 00:46:36;;;;;;;7.13;2.60;;;;;;;;;;5055445;28;20862;-72
2023/01/03 00:49:05;;;;;;;3.23;2.03;;;;;;;;;;5054918;28;20835;-72
2023/01/03 00:51:33;;;;;;;6.27;2.30;;;;;;;;;;5055648;28;20461;-72
2023/01/03 00:54:03;;;;;;;3.80;2.37;;;;;;;;;;5055010;28;20456;-72
2023/01/03 00:56:31;;;;;;;4.60;3.70;;;;;;;;;;5055455;28;20892;-72
2023/01/03 00:58:59;;;;;;;3.27;2.47;;;;;;;;;;5054648;28;20749;-72
2023/01/03 01:01:28;;;;;;;5.30;2.50;;;;;;;;;;5054921;28;20915;-72
2023/01/03 01:03:58;;;;;;;5.20;2.43;;;;;;;;;;5055219;28;20566;-72
2023/01/03 01:06:27;;;;;;;10.47;4.13;;;;;;;;;;5054235;28;20465;-72
2023/01/03 01:08:55;;;;;;;5.70;3.07;;;;;;;;;;5055471;28;20731;-72
2023/01/03 01:11:25;;;;;;;9.63;3.00;;;;;;;;;;5055095;28;20501;-72
2023/01/03 01:13:53;;;;;;;7.63;2.50;;;;;;;;;;5054154;28;20445;-72
2023/01/03 01:16:24;;;;;;;7.37;2.77;;;;;;;;;;5055308;28;20472;-73
2023/01/03 01:18:53;;;;;;;5.90;2.83;;;;;;;;;;5054150;28;20453;-72
2023/01/03 01:21:22;;;;;;;9.10;3.40;;;;;;;;;;5054737;28;20546;-71
2023/01/03 01:23:51;;;;;;;4.30;2.80;;;;;;;;;;5055652;28;20481;-71
2023/01/03 01:26:19;;;;;;;10.83;4.37;;;;;;;;;;5059249;28;20461;-71
2023/01/03 01:28:53;;;;;;;5.50;3.10;;;;;;;;;;5058936;28;20487;-72
2023/01/03 01:31:26;;;;;;;11.43;2.97;;;;;;;;;;5058909;28;20465;-71
2023/01/03 01:33:54;;;;;;;8.30;2.97;;;;;;;;;;5058470;28;20503;-71
2023/01/03 01:36:22;;;;;;;9.07;2.57;;;;;;;;;;5058909;28;20466;-71
2023/01/03 01:38:54;;;;;;;5.40;3.03;;;;;;;;;;5058852;28;20877;-71
2023/01/03 01:46:53;;;;;;;4.60;2.07;;;;;;;;;;5058720;28;20424;-71
2023/01/03 01:49:22;;;;;;;7.00;2.57;;;;;;;;;;5058012;28;20452;-72
2023/01/03 01:51:50;;;;;;;5.97;3.40;;;;;;;;;;5058872;28;20872;-71
2023/01/03 01:54:20;;;;;;;5.50;1.93;;;;;;;;;;5059390;28;20473;-71
2023/01/03 01:56:50;;;;;;;4.40;2.23;;;;;;;;;;5058424;28;20722;-71
2023/01/03 01:59:19;;;;;;;12.17;3.43;;;;;;;;;;5057806;28;20453;-71
2023/01/03 02:01:48;;;;;;;5.17;2.70;;;;;;;;;;5058662;28;20441;-71
2023/01/03 02:04:18;;;;;;;6.70;2.10;;;;;;;;;;5057613;28;20496;-71
2023/01/03 02:06:46;;;;;;;7.83;1.70;;;;;;;;;;5058347;28;20560;-71
2023/01/03 02:09:13;;;;;;;4.57;2.43;;;;;;;;;;5058417;28;20529;-71
2023/01/03 02:11:46;;;;;;;8.97;3.47;;;;;;;;;;5059270;28;20449;-72
2023/01/03 02:14:23;;;;;;;4.73;2.50;;;;;;;;;;5057667;28;20460;-71
2023/01/03 02:16:59;;;;;;;5.70;1.73;;;;;;;;;;5058738;28;20950;-71
2023/01/03 02:19:45;;;;;;;8.20;2.37;;;;;;;;;;5058162;28;20446;-72
2023/01/03 02:22:21;;;;;;;2.80;1.93;;;;;;;;;;5045131;28;20460;-71
2023/01/03 02:25:05;;;;;;;5.57;2.70;;;;;;;;;;5057834;28;20457;-71
2023/01/03 02:27:54;;;;;;;4.73;2.03;;;;;;;;;;5058193;28;20453;-71
2023/01/03 02:30:32;;;;;;;5.60;2.60;;;;;;;;;;5057483;28;20456;-71
2023/01/03 02:33:03;;;;;;;5.07;1.77;;;;;;;;;;5058117;28;20449;-71
2023/01/03 02:35:34;;;;;;;3.40;1.53;;;;;;;;;;5058209;28;20461;-71
2023/01/03 02:38:07;;;;;;;5.30;1.90;;;;;;;;;;5057825;28;20511;-71
2023/01/03 02:40:40;;;;;;;6.70;2.20;;;;;;;;;;5057760;28;20461;-71
2023/01/03 02:43:15;;;;;;;6.37;1.90;;;;;;;;;;5058557;28;20487;-71
2023/01/03 02:45:54;;;;;;;4.20;1.40;;;;;;;;;;5058603;28;20469;-71
2023/01/03 02:48:29;;;;;;;2.90;1.70;;;;;;;;;;5058749;28;20771;-71
2023/01/03 02:50:58;;;;;;;8.40;2.07;;;;;;;;;;5057319;28;20457;-72
2023/01/03 02:53:28;;;;;;;5.10;2.00;;;;;;;;;;5058689;28;20537;-72
2023/01/03 02:55:57;;;;;;;7.73;2.33;;;;;;;;;;5058726;28;20449;-72
2023/01/03 02:58:26;;;;;;;3.60;1.40;;;;;;;;;;5058233;28;20460;-72
2023/01/03 03:00:58;;;;;;;3.40;1.60;;;;;;;;;;5057504;28;20525;-72
2023/01/03 03:03:30;;;;;;;5.57;1.67;;;;;;;;;;5057543;28;20582;-72
2023/01/03 03:06:02;;;;;;;3.97;1.60;;;;;;;;;;5057600;28;20460;-72
2023/01/03 03:08:30;;;;;;;5.03;1.20;;;;;;;;;;5057748;28;20718;-72
2023/01/03 03:13:46;;;;;;;7.80;1.90;;;;;;;;;;5056477;28;20428;-72
2023/01/03 03:16:46;;;;;;;4.70;1.83;;;;;;;;;;5056885;28;20515;-72
2023/01/03 03:24:48;;;;;;;7.40;1.63;;;;;;;;;;5056861;28;20469;-72
2023/01/03 03:24:50;;;;;;;3.00;2.00;;;;;;;;;;5057088;28;20476;-72
2023/01/03 03:30:08;;;;;;;2.63;1.60;;;;;;;;;;5056363;28;20424;-72
2023/01/03 03:32:39;;;;;;;7.40;2.10;;;;;;;;;;5057530;28;20493;-72
2023/01/03 03:35:11;;;;;;;2.87;2.00;;;;;;;;;;5056794;28;20453;-72
2023/01/03 03:37:40;;;;;;;5.37;1.67;;;;;;;;;;5057665;28;20464;-72
2023/01/03 03:45:40;;;;;;;4.60;2.00;;;;;;;;;;5057137;28;20421;-72
2023/01/03 03:48:13;;;;;;;8.10;1.73;;;;;;;;;;5056535;28;20892;-72
2023/01/03 03:50:42;;;;;;;3.63;1.70;;;;;;;;;;5056849;28;20445;-72
2023/01/03 03:53:12;;;;;;;4.87;2.40;;;;;;;;;;5057423;28;20449;-72
2023/01/03 03:55:47;;;;;;;4.63;1.33;;;;;;;;;;5056397;28;20519;-72
2023/01/03 03:58:16;;;;;;;5.47;1.60;;;;;;;;;;5056062;28;20445;-71
2023/01/03 04:00:45;;;;;;;4.13;1.77;;;;;;;;;;5055243;28;20724;-71
2023/01/03 04:03:14;;;;;;;6.63;2.20;;;;;;;;;;5055348;28;20481;-71
2023/01/03 04:05:45;;;;;;;5.50;2.43;;;;;;;;;;5055152;28;20489;-71
2023/01/03 04:08:13;;;;;;;6.87;1.50;;;;;;;;;;5055516;28;20457;-71
2023/01/03 04:10:41;;;;;;;5.33;1.90;;;;;;;;;;5055704;28;20731;-71
2023/01/03 04:13:08;;;;;;;5.37;1.83;;;;;;;;;;5055559;28;20493;-72
2023/01/03 04:15:36;;;;;;;3.37;1.77;;;;;;;;;;5056044;28;20453;-71
2023/01/03 04:18:04;;;;;;;2.90;1.23;;;;;;;;;;5055127;28;20507;-71
2023/01/03 04:20:33;;;;;;;4.00;1.50;;;;;;;;;;5055627;28;20463;-71
2023/01/03 04:23:01;;;;;;;3.80;2.10;;;;;;;;;;5054189;28;20881;-72
2023/01/03 04:25:28;;;;;;;7.20;3.10;;;;;;;;;;5055659;28;20748;-71
2023/01/03 04:27:56;;;;;;;3.20;1.97;;;;;;;;;;5055372;28;20691;-71
2023/01/03 04:30:24;;;;;;;7.33;2.13;;;;;;;;;;5055633;28;20854;-71
2023/01/03 04:32:52;;;;;;;5.70;1.90;;;;;;;;;;5054801;28;20519;-71
2023/01/03 04:35:19;;;;;;;5.60;2.20;;;;;;;;;;5054800;28;20458;-71
2023/01/03 04:37:49;;;;;;;3.27;2.20;;;;;;;;;;5054872;28;20486;-71
2023/01/03 04:40:17;;;;;;;4.47;2.37;;;;;;;;;;5054778;28;20992;-71
2023/01/03 04:45:30;;;;;;;3.80;1.87;;;;;;;;;;5054810;28;20517;-71
2023/01/03 04:48:03;;;;;;;7.23;2.73;;;;;;;;;;5055374;28;20495;-71
2023/01/03 04:50:31;;;;;;;4.73;2.33;;;;;;;;;;5055144;28;20540;-71
2023/01/03 04:53:00;;;;;;;4.27;2.10;;;;;;;;;;5055701;28;20600;-71
2023/01/03 04:55:28;;;;;;;12.23;1.77;;;;;;;;;;5055754;28;20837;-71
2023/01/03 04:57:55;;;;;;;8.50;2.07;;;;;;;;;;5054904;28;20449;-71
2023/01/03 05:00:23;;;;;;;10.80;2.53;;;;;;;;;;5055035;28;20457;-71
2023/01/03 05:02:51;;;;;;;5.30;2.83;;;;;;;;;;5055142;28;20448;-71
2023/01/03 05:05:19;;;;;;;3.23;2.10;;;;;;;;;;5054940;28;20500;-71
2023/01/03 05:07:46;;;;;;;5.90;2.53;;;;;;;;;;5054750;28;20457;-71
2023/01/03 05:10:15;;;;;;;4.50;2.63;;;;;;;;;;5054727;28;20544;-71
2023/01/03 05:12:58;;;;;;;11.43;3.23;;;;;;;;;;5054616;28;20469;-71
2023/01/03 05:15:26;;;;;;;5.40;2.90;;;;;;;;;;5055080;28;20544;-71
2023/01/03 05:17:53;;;;;;;8.60;2.53;;;;;;;;;;5054569;28;20460;-71
2023/01/03 05:25:53;;;;;;;11.43;2.80;;;;;;;;;;5054362;28;20460;-71
2023/01/03 05:28:22;;;;;;;5.93;2.80;;;;;;;;;;5054454;28;20858;-71
2023/01/03 05:30:52;;;;;;;9.43;3.30;;;;;;;;;;5054283;28;20446;-71
2023/01/03 05:33:20;;;;;;;4.73;3.33;;;;;;;;;;5054532;28;20529;-71
2023/01/03 05:35:48;;;;;;;7.10;3.50;;;;;;;;;;5054966;28;20518;-72
2023/01/03 05:38:15;;;;;;;6.83;2.20;;;;;;;;;;5054785;28;20456;-72
2023/01/03 05:40:46;;;;;;;7.23;3.50;;;;;;;;;;5054859;28;20858;-71
2023/01/03 05:43:15;;;;;;;6.43;3.90;;;;;;;;;;5054768;28;20511;-71
2023/01/03 05:45:43;;;;;;;7.93;3.70;;;;;;;;;;5053604;28;20532;-70
2023/01/03 05:48:10;;;;;;;5.23;2.60;;;;;;;;;;5054600;28;20450;-71
2023/01/03 05:50:38;;;;;;;10.90;3.90;;;;;;;;;;5054749;28;20449;-71
2023/01/03 05:53:08;;;;;;;5.60;3.47;;;;;;;;;;5054183;28;20526;-72
2023/01/03 05:55:37;;;;;;;6.33;3.57;;;;;;;;;;5054670;28;20452;-72
2023/01/03 05:58:05;;;;;;;6.53;3.20;;;;;;;;;;5054569;28;20908;-71
2023/01/03 06:00:34;;;;;;;8.00;3.20;;;;;;;;;;5053502;28;20729;-71
2023/01/03 06:03:01;;;;;;;6.37;4.00;;;;;;;;;;5053495;28;20441;-71
2023/01/03 06:05:29;;;;;;;8.73;4.27;;;;;;;;;;5053251;28;20481;-71
2023/01/03 06:07:57;;;;;;;10.13;3.47;;;;;;;;;;5053848;28;20811;-72
2023/01/03 06:10:27;;;;;;;10.13;3.50;;;;;;;;;;5055048;28;20717;-71
2023/01/03 06:12:55;;;;;;;6.67;3.50;;;;;;;;;;5057524;28;20449;-71
2023/01/03 06:15:23;;;;;;;6.17;3.00;;;;;;;;;;5056911;28;20686;-71
2023/01/03 06:17:56;;;;;;;6.23;3.57;;;;;;;;;;5056172;28;20446;-71
2023/01/03 06:20:24;;;;;;;8.73;4.23;;;;;;;;;;5056263;28;20464;-71
2023/01/03 06:22:52;;;;;;;5.90;4.10;;;;;;;;;;5056570;28;21002;-70
2023/01/03 06:25:20;;;;;;;8.00;3.87;;;;;;;;;;5057811;28;20495;-72
2023/01/03 06:27:48;;;;;;;10.20;4.13;;;;;;;;;;5056498;28;20758;-72
2023/01/03 06:30:15;;;;;;;8.40;3.13;;;;;;;;;;5056138;28;20461;-71
2023/01/03 06:32:44;;;;;;;8.03;3.80;;;;;;;;;;5057842;28;20457;-72
2023/01/03 06:35:13;;;;;;;5.83;3.50;;;;;;;;;;5057705;28;20454;-72
2023/01/03 06:37:41;;;;;;;8.53;4.00;;;;;;;;;;5056777;28;20454;-72
2023/01/03 06:40:09;;;;;;;7.30;4.10;;;;;;;;;;5055554;28;20449;-71
2023/01/03 06:42:41;;;;;;;4.87;3.10;;;;;;;;;;5057152;28;20446;-71
2023/01/03 06:53:31;;;;;;;7.33;4.00;;;;;;;;;;5054939;28;20452;-71
2023/01/03 06:56:05;;;;;;;9.20;3.33;;;;;;;;;;5052277;28;20461;-71
2023/01/03 06:58:33;;;;;;;4.20;2.97;;;;;;;;;;5056314;28;20517;-72
2023/01/03 07:01:04;;;;;;;6.00;3.93;;;;;;;;;;5057227;28;20997;-72
2023/01/03 07:03:35;;;;;;;7.30;2.90;;;;;;;;;;5056598;28;20457;-72
2023/01/03 07:06:06;;;;;;;8.23;3.27;;;;;;;;;;5056982;28;20481;-72
2023/01/03 07:08:34;;;;;;;9.20;3.70;;;;;;;;;;5054851;28;20552;-71
2023/01/03 07:11:02;;;;;;;4.80;2.97;;;;;;;;;;5056725;28;20861;-71
2023/01/03 07:16:16;;;;;;;7.70;2.70;;;;;;;;;;5042780;28;20452;-72
2023/01/03 07:18:44;;;;;;;9.73;3.57;;;;;;;;;;5039503;28;20817;-71
2023/01/03 07:21:14;;;;;;;11.70;3.20;;;;;;;;;;5040792;28;20457;-71
2023/01/03 07:23:42;;;;;;;7.50;3.40;;;;;;;;;;5056382;28;20866;-71
2023/01/03 07:26:13;;;;;;;6.03;3.30;;;;;;;;;;5045762;28;20510;-71
2023/01/03 07:28:40;;;;;;;6.70;2.90;;;;;;;;;;5054875;28;20465;-71
2023/01/03 07:31:23;;;;;;;6.87;3.63;;;;;;;;;;5056655;28;20616;-72
2023/01/03 07:33:55;;;;;;;9.07;3.70;;;;;;;;;;5050088;28;20462;-72
2023/01/03 07:36:43;;;;;;;7.30;3.80;;;;;;;;;;5038352;28;20496;-72
2023/01/03 07:39:11;;;;;;;4.13;3.20;;;;;;;;;;5035086;28;20458;-72
2023/01/03 07:44:27;;;;;;;6.10;2.80;;;;;;;;;;5036198;28;20571;-71
2023/01/03 07:47:01;;;;;;;4.60;2.73;;;;;;;;;;5051304;28;20473;-74
2023/01/03 07:49:35;;;;;;;8.50;2.80;;;;;;;;;;5051140;28;20723;-71
2023/01/03 07:52:04;;;;;;;6.97;3.07;;;;;;;;;;5049470;28;20454;-72
2023/01/03 07:54:32;;;;;;;7.87;3.50;;;;;;;;;;5040387;28;20474;-71
2023/01/03 07:57:05;;;;;;;7.00;4.63;;;;;;;;;;5034988;28;20500;-72
2023/01/03 07:59:33;;;;;;;8.50;3.37;;;;;;;;;;5034925;28;20554;-71
2023/01/03 08:02:01;;;;;;;7.47;4.57;;;;;;;;;;5037527;28;20458;-71
2023/01/03 08:04:32;;;;;;;11.17;4.00;;;;;;;;;;5037998;28;20490;-71
2023/01/03 08:07:25;;;;;;;8.70;4.03;;;;;;;;;;5038129;28;20458;-72
2023/01/03 08:15:45;;;;;;;11.40;4.68;;;;;;;;;;5035945;28;20417;-71
2023/01/03 08:18:16;;;;;;;7.67;4.57;;;;;;;;;;5052574;28;20538;-70
2023/01/03 08:20:54;;;;;;;10.60;4.37;;;;;;;;;;5052930;28;20489;-71
2023/01/03 08:23:26;;;;;;;4.43;3.10;;;;;;;;;;5049084;28;20465;-71
2023/01/03 08:26:08;;;;;;;7.13;3.87;;;;;;;;;;5045566;28;20480;-70
2023/01/03 08:28:39;;;;;;;10.27;5.60;;;;;;;;;;5053730;28;20564;-70
2023/01/03 08:31:10;;;;;;;8.43;4.40;;;;;;;;;;5036497;28;20478;-70
2023/01/03 08:33:49;;;;;;;10.07;4.20;;;;;;;;;;5034861;28;20497;-70
2023/01/03 08:36:20;;;;;;;8.90;3.77;;;;;;;;;;5050730;28;20456;-71
2023/01/03 08:38:58;;;;;;;5.90;3.63;;;;;;;;;;5054981;28;20453;-73
2023/01/03 08:41:35;;;;;;;4.70;3.33;;;;;;;;;;5050554;28;20461;-71
2023/01/03 08:44:04;;;;;;;9.07;3.83;;;;;;;;;;5053102;28;21098;-72
2023/01/03 08:46:36;;;;;;;8.63;4.03;;;;;;;;;;5055868;28;20485;-71
2023/01/03 08:49:11;;;;;;;6.30;3.33;;;;;;;;;;5039632;28;20845;-72
2023/01/03 08:51:46;;;;;;;9.33;4.40;;;;;;;;;;5042983;28;20701;-71
2023/01/03 08:54:17;;;;;;;7.00;3.77;;;;;;;;;;5034083;28;20779;-70
2023/01/03 08:56:47;;;;;;;8.87;5.27;;;;;;;;;;5035312;28;20463;-71
2023/01/03 08:59:17;;;;;;;8.50;4.77;;;;;;;;;;5035437;28;20500;-72
2023/01/03 09:01:53;;;;;;;9.07;4.97;;;;;;;;;;5038964;28;20513;-71
2023/01/03 09:04:28;;;;;;;4.77;3.40;;;;;;;;;;5045885;28;20916;-70
2023/01/03 09:07:19;;;;;;;4.37;3.53;;;;;;;;;;5056552;28;20527;-71
2023/01/03 09:09:55;;;;;;;5.90;3.30;;;;;;;;;;5057927;28;20476;-71
2023/01/03 09:12:24;;;;;;;11.17;4.57;;;;;;;;;;5047770;28;20461;-72
2023/01/03 09:14:54;;;;;;;7.57;4.10;;;;;;;;;;5035218;28;20463;-70
2023/01/03 09:17:23;;;;;;;26.07;8.43;;;;;;;;;;5034673;28;20451;-70
2023/01/03 09:20:12;;;;;;;7.83;3.33;;;;;;;;;;5033658;28;20545;-71
2023/01/03 09:22:46;;;;;;;7.90;4.40;;;;;;;;;;5035856;28;20478;-70
2023/01/03 09:25:17;;;;;;;13.53;4.47;;;;;;;;;;5052358;28;20925;-70
2023/01/03 09:27:50;;;;;;;7.10;4.43;;;;;;;;;;5047775;28;20450;-71
2023/01/03 09:30:19;;;;;;;10.37;6.30;;;;;;;;;;5036302;28;20449;-71
2023/01/03 09:32:47;;;;;;;9.13;4.53;;;;;;;;;;5043121;28;20460;-71
2023/01/03 09:35:14;;;;;;;9.23;4.00;;;;;;;;;;5034456;28;20446;-71
2023/01/03 09:37:42;;;;;;;6.70;3.57;;;;;;;;;;5052820;28;20814;-72
2023/01/03 09:40:15;;;;;;;7.43;3.83;;;;;;;;;;5046985;28;20570;-71
2023/01/03 09:45:35;;;;;;;7.43;4.20;;;;;;;;;;5054374;28;20508;-72
2023/01/03 09:48:05;;;;;;;9.47;5.10;;;;;;;;;;5057007;28;20452;-71
2023/01/03 09:50:54;;;;;;;10.23;4.63;;;;;;;;;;5054382;28;20465;-72
2023/01/03 10:11:05;;;;;;;10.87;4.60;;;;;;;;;;5038348;28;20784;-71
2023/01/03 10:16:46;;;;;;;7.80;4.63;;;;;;;;;;5043531;28;20943;-72
2023/01/03 10:19:44;;;;;;;16.90;6.27;;;;;;;;;;5037271;28;20458;-73
2023/01/03 10:22:13;;;;;;;9.60;5.07;;;;;;;;;;5005980;28;20608;-71
2023/01/03 10:24:54;;;;;;;8.23;4.80;;;;;;;;;;5039279;28;20438;-73
2023/01/03 10:27:32;;;;;;;9.50;5.90;;;;;;;;;;5049674;28;20458;-72
2023/01/03 10:30:18;;;;;;;12.17;7.00;;;;;;;;;;5047111;28;20457;-73
2023/01/03 10:33:08;;;;;;;10.93;5.10;;;;;;;;;;5036326;28;20470;-73
2023/01/03 10:35:47;;;;;;;7.30;4.87;;;;;;;;;;5040236;28;20497;-73
2023/01/03 10:38:18;;;;;;;11.47;5.47;;;;;;;;;;5038358;28;20450;-73
2023/01/03 10:44:08;;;;;;;8.57;5.10;;;;;;;;;;5039861;28;20469;-73
2023/01/03 10:47:02;;;;;;;8.47;4.37;;;;;;;;;;5038752;28;20535;-73
2023/01/03 10:49:39;;;;;;;14.00;5.50;;;;;;;;;;5045512;28;20774;-73
2023/01/03 10:52:23;;;;;;;12.57;5.37;;;;;;;;;;5037309;28;20481;-72
2023/01/03 10:54:55;;;;;;;7.53;4.80;;;;;;;;;;5036735;28;20553;-74
2023/01/03 10:58:00;;;;;;;11.37;6.57;;;;;;;;;;5048271;28;20464;-72
2023/01/03 11:00:39;;;;;;;7.37;5.00;;;;;;;;;;4997794;28;20458;-73
2023/01/03 11:03:23;;;;;;;14.57;5.00;;;;;;;;;;5037032;28;20743;-72
2023/01/03 11:06:08;;;;;;;8.70;4.47;;;;;;;;;;5035468;28;20950;-73
2023/01/03 11:08:44;;;;;;;10.87;5.43;;;;;;;;;;5035930;28;20870;-72
2023/01/03 11:11:30;;;;;;;10.50;6.83;;;;;;;;;;5044897;28;20479;-72
2023/01/03 11:14:21;;;;;;;10.10;5.77;;;;;;;;;;5034969;28;20462;-73
2023/01/03 11:17:04;;;;;;;11.67;6.97;;;;;;;;;;5039243;28;21060;-73
2023/01/03 11:19:40;;;;;;;8.83;4.87;;;;;;;;;;5052091;28;20908;-73
2023/01/03 11:22:19;;;;;;;9.63;5.50;;;;;;;;;;5030303;28;20544;-74
2023/01/03 11:25:13;;;;;;;12.77;5.40;;;;;;;;;;5035264;28;20493;-73
2023/01/03 11:28:07;;;;;;;9.90;5.50;;;;;;;;;;5035803;28;20465;-74
2023/01/03 11:30:39;;;;;;;12.93;5.80;;;;;;;;;;5022969;28;20454;-72
2023/01/03 11:33:17;;;;;;;8.10;4.70;;;;;;;;;;5056236;28;20486;-72
2023/01/03 11:35:52;;;;;;;6.60;4.23;;;;;;;;;;5055868;28;20469;-72
2023/01/03 11:38:35;;;;;;;6.40;4.03;;;;;;;;;;5055608;28;20468;-72
2023/01/03 11:41:15;;;;;;;9.73;4.30;;;;;;;;;;5044760;28;20458;-72
2023/01/03 11:43:48;;;;;;;8.07;3.97;;;;;;;;;;5035672;28;20466;-72
2023/01/03 11:46:34;;;;;;;6.50;3.80;;;;;;;;;;5043906;28;20477;-72
2023/01/03 11:49:26;;;;;;;8.07;4.53;;;;;;;;;;5044593;28;20531;-73
2023/01/03 11:52:06;;;;;;;6.80;4.60;;;;;;;;;;5035212;28;20831;-72
2023/01/03 11:55:06;;;;;;;10.43;4.40;;;;;;;;;;5036216;28;20487;-73
2023/01/03 11:57:47;;;;;;;8.00;4.40;;;;;;;;;;5055124;28;20469;-73
2023/01/03 12:00:26;;;;;;;7.53;4.60;;;;;;;;;;5039596;28;20925;-73
2023/01/03 12:03:22;;;;;;;9.03;4.87;;;;;;;;;;5035622;28;20458;-74
2023/01/03 12:05:57;;;;;;;7.03;5.00;;;;;;;;;;5020269;28;20497;-74
2023/01/03 12:08:54;;;;;;;11.40;4.90;;;;;;;;;;5041587;28;20724;-73
2023/01/03 12:11:27;;;;;;;11.50;4.93;;;;;;;;;;5034635;28;20516;-72
2023/01/03 12:14:16;;;;;;;12.37;4.77;;;;;;;;;;5034821;28;20479;-73
2023/01/03 12:17:01;;;;;;;8.10;3.60;;;;;;;;;;5038741;28;20445;-73
2023/01/03 12:19:35;;;;;;;7.33;3.77;;;;;;;;;;5040850;28;20765;-73
2023/01/03 12:22:21;;;;;;;10.83;4.33;;;;;;;;;;5054414;28;20500;-72
2023/01/03 12:25:00;;;;;;;7.70;4.30;;;;;;;;;;5054028;28;20556;-72
2023/01/03 12:27:34;;;;;;;6.50;3.57;;;;;;;;;;5049724;28;20477;-72
2023/01/03 12:33:19;;;;;;;4.10;2.83;;;;;;;;;;5036061;28;20537;-73
2023/01/03 12:35:49;;;;;;;6.37;3.00;;;;;;;;;;5040057;28;20464;-72
2023/01/03 12:38:17;;;;;;;5.10;2.80;;;;;;;;;;5054197;28;20462;-72
2023/01/03 12:40:48;;;;;;;5.90;2.97;;;;;;;;;;5053860;28;20465;-73
2023/01/03 12:43:23;;;;;;;3.87;2.77;;;;;;;;;;5055048;28;20453;-73
2023/01/03 12:46:03;;;;;;;7.40;3.43;;;;;;;;;;5040931;28;20520;-73
2023/01/03 12:51:54;;;;;;;7.47;3.50;;;;;;;;;;5043959;28;20462;-73
2023/01/03 12:54:41;;;;;;;6.47;3.00;;;;;;;;;;5039597;28;20512;-72
2023/01/03 13:00:35;;;;;;;6.90;3.40;;;;;;;;;;5039351;28;20466;-72
2023/01/03 13:03:20;;;;;;;6.20;3.17;;;;;;;;;;5040435;28;20473;-74
2023/01/03 13:06:02;;;;;;;5.87;3.70;;;;;;;;;;5043641;28;20571;-73
2023/01/03 13:08:51;;;;;;;7.30;3.43;;;;;;;;;;5053894;28;20458;-74
2023/01/03 13:11:25;;;;;;;9.30;4.30;;;;;;;;;;5050254;28;20888;-73
2023/01/03 13:13:58;;;;;;;7.47;3.70;;;;;;;;;;5045734;28;20473;-73
2023/01/03 13:16:42;;;;;;;8.50;3.37;;;;;;;;;;5036513;28;20486;-74
2023/01/03 13:19:25;;;;;;;6.30;3.20;;;;;;;;;;5047514;28;20450;-73
2023/01/03 13:22:24;;;;;;;6.20;4.20;;;;;;;;;;5046453;28;20470;-73
2023/01/03 13:24:58;;;;;;;8.80;3.73;;;;;;;;;;5040207;28;20477;-73
2023/01/03 13:27:41;;;;;;;8.67;4.43;;;;;;;;;;5035692;28;20501;-73
2023/01/03 13:30:20;;;;;;;7.73;3.90;;;;;;;;;;5035024;28;20537;-72
2023/01/03 13:32:50;;;;;;;6.23;4.20;;;;;;;;;;5035048;28;20454;-73
2023/01/03 13:35:40;;;;;;;8.87;4.80;;;;;;;;;;5045500;28;20548;-74
2023/01/03 13:41:26;;;;;;;10.27;5.03;;;;;;;;;;5055068;28;20536;-73
2023/01/03 13:44:25;;;;;;;7.13;4.20;;;;;;;;;;5048645;28;20540;-73
2023/01/03 13:49:42;;;;;;;9.73;4.57;;;;;;;;;;5033116;28;20512;-73
2023/01/03 13:52:33;;;;;;;18.13;6.27;;;;;;;;;;5053759;28;20534;-74
2023/01/03 13:55:07;;;;;;;10.53;6.17;;;;;;;;;;5049812;28;20541;-75
2023/01/03 13:58:01;;;;;;;9.30;5.50;;;;;;;;;;5034935;28;20539;-74
2023/01/03 14:00:49;;;;;;;12.53;5.27;;;;;;;;;;5034816;28;20462;-72
2023/01/03 14:03:58;;;;;;;8.90;4.30;;;;;;;;;;5045091;28;20476;-73
2023/01/03 14:09:34;;;;;;;11.80;6.30;;;;;;;;;;5041541;28;20967;-73
2023/01/03 14:12:40;;;;;;;11.30;6.97;;;;;;;;;;5052630;28;20464;-73
2023/01/03 14:20:59;;;;;;;9.50;5.50;;;;;;;;;;4948296;28;20505;-73
2023/01/03 14:23:49;;;;;;;11.37;6.20;;;;;;;;;;4963300;28;20462;-73
2023/01/03 14:26:47;;;;;;;8.97;5.43;;;;;;;;;;4968057;28;20488;-73
2023/01/03 14:29:28;;;;;;;13.33;5.77;;;;;;;;;;4977879;28;20957;-73
2023/01/03 14:32:01;;;;;;;9.13;6.00;;;;;;;;;;5045175;28;20881;-75
2023/01/03 14:34:37;;;;;;;6.83;4.97;;;;;;;;;;5045887;28;20905;-73
2023/01/03 14:37:13;;;;;;;10.93;6.37;;;;;;;;;;5046786;28;20453;-75
2023/01/03 14:43:01;;;;;;;10.00;6.47;;;;;;;;;;5045049;28;21103;-74
2023/01/03 14:52:03;;;;;;;26.10;14.03;;;;;;;;;;5017168;28;20459;-72
2023/01/03 14:54:34;;;;;;;8.00;5.57;;;;;;;;;;5045642;28;20550;-72
2023/01/03 14:59:45;;;;;;;15.40;10.80;;;;;;;;;;5041911;28;20869;-72
2023/01/03 15:02:19;;;;;;;19.13;9.30;;;;;;;;;;5046946;28;20455;-73
2023/01/03 15:05:06;;;;;;;13.67;8.40;;;;;;;;;;5050607;28;20552;-72
2023/01/03 15:07:54;;;;;;;22.13;8.90;;;;;;;;;;5034918;28;21028;-72
2023/01/03 15:10:35;;;;;;;17.60;9.50;;;;;;;;;;5038927;28;20516;-72
2023/01/03 15:16:19;;;;;;;12.50;7.70;;;;;;;;;;5029442;28;20485;-71
2023/01/03 15:18:52;;;;;;;15.10;9.00;;;;;;;;;;5039459;28;20470;-72
2023/01/03 15:21:21;;;;;;;13.37;9.83;;;;;;;;;;5038072;28;21092;-72
2023/01/03 15:23:51;;;;;;;12.70;8.53;;;;;;;;;;5041872;28;20873;-72
2023/01/03 15:26:20;;;;;;;17.47;10.60;;;;;;;;;;5037199;28;20447;-71
2023/01/03 15:29:06;;;;;;;16.50;9.27;;;;;;;;;;5036664;28;20551;-72
2023/01/03 15:31:36;;;;;;;14.63;10.07;;;;;;;;;;5034151;28;21044;-72
2023/01/03 15:34:17;;;;;;;16.93;8.87;;;;;;;;;;5035638;28;20461;-72
2023/01/03 15:36:50;;;;;;;14.50;10.00;;;;;;;;;;5053148;28;20811;-73
2023/01/03 15:39:27;;;;;;;16.10;11.13;;;;;;;;;;5056270;28;20468;-72
2023/01/03 15:44:45;;;;;;;20.03;10.80;;;;;;;;;;5049127;28;20465;-72
2023/01/03 15:47:16;;;;;;;18.10;11.63;;;;;;;;;;5052911;28;20582;-72
2023/01/03 15:49:52;;;;;;;19.47;11.00;;;;;;;;;;5063616;28;20920;-72
2023/01/03 15:52:20;;;;;;;12.63;8.90;;;;;;;;;;5051225;28;20457;-72
2023/01/03 15:54:49;;;;;;;16.90;10.77;;;;;;;;;;5035454;28;20553;-73
2023/01/03 15:57:20;;;;;;;16.53;9.83;;;;;;;;;;5039253;28;20462;-73
2023/01/03 15:59:56;;;;;;;16.83;10.67;;;;;;;;;;5052725;28;20460;-74
2023/01/03 16:02:24;;;;;;;12.37;9.10;;;;;;;;;;5042472;28;20461;-73
2023/01/03 16:04:52;;;;;;;20.90;11.60;;;;;;;;;;5034488;28;20458;-72
2023/01/03 16:07:20;;;;;;;17.13;11.43;;;;;;;;;;5042964;28;20529;-72
2023/01/03 16:09:52;;;;;;;20.47;10.43;;;;;;;;;;5054771;28;20450;-73
2023/01/03 16:12:22;;;;;;;15.73;9.90;;;;;;;;;;5054496;28;20457;-73
2023/01/03 16:14:53;;;;;;;23.53;16.73;;;;;;;;;;5054088;28;20900;-73
2023/01/03 16:17:23;;;;;;;13.70;10.43;;;;;;;;;;5042971;28;20837;-72
2023/01/03 16:19:51;;;;;;;17.17;10.23;;;;;;;;;;5045563;28;20450;-72
2023/01/03 16:22:20;;;;;;;19.20;12.77;;;;;;;;;;5053326;28;20488;-73
2023/01/03 16:24:47;;;;;;;24.60;12.10;;;;;;;;;;5036969;28;20490;-73
2023/01/03 16:27:20;;;;;;;14.57;9.57;;;;;;;;;;5035003;28;21067;-73
2023/01/03 16:29:53;;;;;;;17.03;10.50;;;;;;;;;;5039798;28;20466;-73
2023/01/03 16:32:26;;;;;;;17.73;11.00;;;;;;;;;;5040469;28;20835;-73
2023/01/03 16:34:55;;;;;;;15.60;10.80;;;;;;;;;;5050994;28;20466;-72
2023/01/03 16:37:27;;;;;;;18.97;11.60;;;;;;;;;;5038535;28;20481;-72
2023/01/03 16:39:55;;;;;;;23.10;14.60;;;;;;;;;;5034705;28;21054;-71
2023/01/03 16:42:27;;;;;;;24.47;14.00;;;;;;;;;;5041756;28;20450;-72
2023/01/03 16:44:58;;;;;;;20.20;12.17;;;;;;;;;;5053933;28;20456;-72
2023/01/03 16:47:32;;;;;;;20.47;11.90;;;;;;;;;;5050701;28;20493;-72
2023/01/03 16:50:03;;;;;;;22.43;13.57;;;;;;;;;;5055577;28;20457;-73
2023/01/03 16:52:39;;;;;;;24.00;12.90;;;;;;;;;;5040637;28;20766;-73
2023/01/03 16:55:13;;;;;;;19.30;10.90;;;;;;;;;;5040844;28;20470;-72
2023/01/03 16:57:48;;;;;;;21.33;12.47;;;;;;;;;;5034542;28;20468;-72
2023/01/03 17:00:18;;;;;;;27.53;15.33;;;;;;;;;;5034568;28;20446;-72
2023/01/03 17:02:46;;;;;;;24.87;14.30;;;;;;;;;;5043402;28;20530;-74
2023/01/03 17:05:14;;;;;;;17.67;12.70;;;;;;;;;;5034454;28;20473;-72
2023/01/03 17:07:48;;;;;;;20.50;12.50;;;;;;;;;;5040695;28;20509;-73
2023/01/03 17:10:22;;;;;;;19.57;12.37;;;;;;;;;;5038524;28;20458;-71
2023/01/03 17:12:52;;;;;;;22.47;13.57;;;;;;;;;;5035084;28;20999;-73
2023/01/03 17:15:22;;;;;;;30.43;14.73;;;;;;;;;;5046497;28;20445;-71
2023/01/03 17:17:57;;;;;;;17.70;12.90;;;;;;;;;;5044216;28;20473;-74